DNKN/KAN METAR and TAF weather

Enter ICAO airport designator
Station Type Date Time Source
DNKN METAR 2018/01/22 20:00 UTC NOAA

DNKN 222000Z 03003KT 9999 NSC 26/02 Q1018 NOSIG


Station Type Date Time Source
DNKN Decoded METAR 2018/01/22 20:00 UTC NOAA

Kano, Nigeria (DNKN) 12-03N 008-32E 481M
Jan 22, 2018 - 03:00 PM EST / 2018.01.22 2000 UTC
Wind: from the NNE (030 degrees) at 3 MPH (3 KT):0
Visibility: greater than 7 mile(s):0
Temperature: 78 F (26 C)
Dew Point: 35 F (2 C)
Relative Humidity: 20%
Pressure (altimeter): 30.06 in. Hg (1018 hPa)
ob: DNKN 222000Z 03003KT 9999 NSC 26/02 Q1018 NOSIG
cycle: 20

Station Type Date Time Source
DNKN TAF 2018/01/22 06:21 UTC NOAA

TAF DNKN 220350Z 2206/2312 06010KT CAVOK


Example: see airport list